Main page
METAR-TAF:

METAR-TAF

Airports :

Gällivare Lapland Airport

Gällivare, Sweden

latitude: 67-09N, longitude: 020-39E, elevation: 359 m

Current weather observation

The report was made 41 minutes ago, at 19:50 UTC
Wind 8 kt from the South/Southeast, varying between Southeast and South/Southwest
Temperature -4°C
Humidity 86%
Pressure 990 hPa
Visibility: 6000 m
Overcast at a height of 600 ft
light snow

METAR: ESNG 201950Z 16008KT 130V200 6000 -SN OVC006 M04/M06 Q0990

Time: 21:31 (20:31 UTC)

Forecast

The report was made 3 hours and 1 minutes ago, at 17:30 UTC
Forecast valid from 20 at 18 UTC to 20 at 22 UTC
Wind 12 kt from the South
Visibility 10 km or more
Overcast at a height of 700 ft
light snow
Temporary
from 20 at 18 UTC to 20 at 22 UTC
Visibility: 2000 m
at a height of 1000 ft
snow

TAF: ESNG 201730Z 2018/2022 17012KT 9999 -SN OVC007 TEMPO 2018/2022 2000 SN VV010

Weather observations and forecasts of more than 4000 airports (METAR and TAF reports).

The available stations are represented by yellow and red dots on the map.

Hover mouse over dot to see the name of the station.

Then click to see weather observations and forecasts.

To change the map : click on the green buttons with a black cross to zoom in, on the green button with a dash to zoom out, or on the green arrows for adjacent maps.


METAR-TAF: